createdAt,value
2019-01-16T00:03:06.322Z,4.7
2019-01-16T00:08:06.341Z,4.7
2019-01-16T00:13:06.514Z,4.7
2019-01-16T00:18:06.354Z,4.8
2019-01-16T00:23:06.350Z,4.7
2019-01-16T00:28:06.506Z,4.7
2019-01-16T00:33:06.377Z,4.7
2019-01-16T00:38:06.345Z,4.8
2019-01-16T00:43:06.367Z,4.7
2019-01-16T00:48:06.375Z,4.8
2019-01-16T00:53:06.318Z,4.8
2019-01-16T00:58:06.513Z,4.8
2019-01-16T01:03:06.546Z,4.8
2019-01-16T01:08:06.382Z,4.8
2019-01-16T01:13:06.510Z,4.8
2019-01-16T01:18:06.540Z,4.8
2019-01-16T01:23:06.587Z,4.8
2019-01-16T01:28:06.513Z,4.8
2019-01-16T01:33:06.373Z,4.8
2019-01-16T01:38:06.588Z,4.8
2019-01-16T01:43:06.508Z,4.8
2019-01-16T01:48:06.507Z,4.8
2019-01-16T01:53:06.582Z,4.8
2019-01-16T01:58:06.513Z,4.8
2019-01-16T02:03:06.545Z,4.8
2019-01-16T02:08:06.404Z,4.8
2019-01-16T02:13:06.409Z,4.8
2019-01-16T02:18:06.543Z,4.8
2019-01-16T02:23:06.586Z,4.8
2019-01-16T02:28:06.615Z,4.8
2019-01-16T02:33:06.650Z,4.8
2019-01-16T02:38:06.390Z,4.8
2019-01-16T02:43:06.430Z,4.7
2019-01-16T02:48:06.418Z,4.7
2019-01-16T02:53:06.580Z,4.7
2019-01-16T02:58:06.421Z,4.7
2019-01-16T03:03:06.450Z,4.6
2019-01-16T03:08:06.574Z,4.6
2019-01-16T03:13:06.441Z,4.6
2019-01-16T03:18:06.460Z,4.6
2019-01-16T03:23:06.573Z,4.5
2019-01-16T03:28:06.627Z,4.5
2019-01-16T03:33:06.659Z,4.5
2019-01-16T03:38:06.573Z,4.5
2019-01-16T03:43:06.456Z,4.4
2019-01-16T03:48:06.589Z,4.4
2019-01-16T03:53:06.690Z,4.4
2019-01-16T03:58:06.471Z,4.3
2019-01-16T04:03:06.457Z,4.3
2019-01-16T04:08:06.470Z,4.2
2019-01-16T04:13:06.456Z,4.2
2019-01-16T04:18:06.654Z,4.2
2019-01-16T04:23:06.495Z,4.1
2019-01-16T04:28:06.607Z,4.1
2019-01-16T04:33:06.612Z,4
2019-01-16T04:38:06.477Z,4
2019-01-16T04:43:06.669Z,3.9
2019-01-16T04:48:06.652Z,3.9
2019-01-16T04:53:06.717Z,3.8
2019-01-16T04:58:06.616Z,3.8
2019-01-16T05:03:06.644Z,3.8
2019-01-16T05:08:06.518Z,3.7
2019-01-16T05:13:06.515Z,3.6
2019-01-16T05:18:06.643Z,3.6
2019-01-16T05:23:06.677Z,3.5
2019-01-16T05:28:06.737Z,3.5
2019-01-16T05:33:06.766Z,3.5
2019-01-16T05:38:06.674Z,3.4
2019-01-16T05:43:06.516Z,3.3
2019-01-16T05:48:06.539Z,3.3
2019-01-16T05:53:06.682Z,3.3
2019-01-16T05:58:06.566Z,3.2
2019-01-16T06:03:06.774Z,3.1
2019-01-16T06:08:06.551Z,3
2019-01-16T06:13:06.651Z,3
2019-01-16T06:18:06.597Z,2.9
2019-01-16T06:23:06.550Z,2.8
2019-01-16T06:28:06.572Z,2.8
2019-01-16T06:33:06.581Z,2.7
2019-01-16T06:38:06.564Z,2.7
2019-01-16T06:43:06.639Z,2.6
2019-01-16T06:48:06.640Z,2.5
2019-01-16T06:53:06.580Z,2.4
2019-01-16T06:58:06.531Z,2.4
2019-01-16T07:03:06.744Z,2.4
2019-01-16T07:08:06.683Z,2.3
2019-01-16T07:13:06.738Z,2.3
2019-01-16T07:18:06.535Z,2.3
2019-01-16T07:23:06.795Z,2.3
2019-01-16T07:28:06.586Z,2.3
2019-01-16T07:33:06.596Z,2.3
2019-01-16T07:38:06.581Z,2.5
2019-01-16T07:43:06.718Z,2.6
2019-01-16T07:48:06.578Z,2.7
2019-01-16T07:53:06.579Z,2.9
2019-01-16T07:58:07.230Z,3
2019-01-16T08:03:06.595Z,3.2
2019-01-16T08:08:06.587Z,3.3
2019-01-16T08:13:06.837Z,3.5
2019-01-16T08:18:06.761Z,3.6
2019-01-16T08:23:06.609Z,3.7
2019-01-16T08:28:06.863Z,3.9
2019-01-16T08:33:06.617Z,4.1
2019-01-16T08:38:06.612Z,4.2
2019-01-16T08:43:06.623Z,4.3
2019-01-16T08:48:06.937Z,4.4
2019-01-16T08:53:06.625Z,4.6
2019-01-16T08:58:06.633Z,4.7
2019-01-16T09:03:06.657Z,4.8
2019-01-16T09:08:06.790Z,5
2019-01-16T09:13:06.647Z,5.1
2019-01-16T09:18:06.861Z,5.2
2019-01-16T09:23:06.792Z,5.4
2019-01-16T09:28:06.872Z,5.5
2019-01-16T09:33:06.894Z,5.8
2019-01-16T09:38:06.606Z,5.7
2019-01-16T09:43:06.833Z,5.9
2019-01-16T09:48:06.822Z,6
2019-01-16T09:53:06.902Z,6
2019-01-16T09:58:06.837Z,6.2
2019-01-16T10:03:06.652Z,6.2
2019-01-16T10:08:06.897Z,6.3
2019-01-16T10:13:06.823Z,6.4
2019-01-16T10:18:06.669Z,6.5
2019-01-16T10:23:06.672Z,6.7
2019-01-16T10:28:06.800Z,6.6
2019-01-16T10:33:06.673Z,6.4
2019-01-16T10:38:06.702Z,6.5
2019-01-16T10:43:06.695Z,6.7
2019-01-16T10:48:06.857Z,6.9
2019-01-16T10:53:06.902Z,6.9
2019-01-16T10:58:06.953Z,6.9
2019-01-16T11:03:06.636Z,6.9
2019-01-16T11:08:06.712Z,7
2019-01-16T11:13:06.684Z,6.7
2019-01-16T11:18:06.870Z,6.9
2019-01-16T11:23:06.682Z,6.7
2019-01-16T11:28:06.937Z,6.8
2019-01-16T11:33:06.864Z,6.8
2019-01-16T11:38:06.886Z,6.7
2019-01-16T11:43:06.731Z,6.8
2019-01-16T11:48:06.719Z,6.9
2019-01-16T11:53:06.722Z,7
2019-01-16T11:58:06.864Z,7
2019-01-16T12:03:06.858Z,7.1
2019-01-16T12:08:06.893Z,7.1
2019-01-16T12:13:06.948Z,7.1
2019-01-16T12:18:06.744Z,7.2
2019-01-16T12:23:06.893Z,7.1
2019-01-16T12:28:06.736Z,7
2019-01-16T12:33:06.766Z,7.1
2019-01-16T12:38:06.860Z,7.1
2019-01-16T12:43:06.769Z,7.3
2019-01-16T12:48:06.992Z,7.2
2019-01-16T12:53:06.775Z,7.2
2019-01-16T12:58:13.300Z,7.2
2019-01-16T13:03:06.977Z,7.2
2019-01-16T13:08:06.725Z,7.2
2019-01-16T13:13:06.940Z,7
2019-01-16T13:18:06.977Z,7.1
2019-01-16T13:23:06.781Z,7.2
2019-01-16T13:28:06.935Z,7.1
2019-01-16T13:33:06.760Z,7
2019-01-16T13:38:06.762Z,7.1
2019-01-16T13:43:06.791Z,7.2
2019-01-16T13:48:06.824Z,7.1
2019-01-16T13:53:06.786Z,7
2019-01-16T13:58:06.802Z,7.1
2019-01-16T14:03:06.963Z,7.1
2019-01-16T14:08:07.011Z,7.1
2019-01-16T14:13:06.800Z,7
2019-01-16T14:18:06.962Z,7
2019-01-16T14:23:06.807Z,7
2019-01-16T14:28:06.801Z,6.9
2019-01-16T14:33:06.963Z,6.9
2019-01-16T14:38:06.797Z,6.9
2019-01-16T14:43:06.952Z,6.8
2019-01-16T14:48:06.967Z,6.7
2019-01-16T14:53:06.997Z,6.6
2019-01-16T14:58:07.045Z,6.6
2019-01-16T15:03:06.841Z,6.6
2019-01-16T15:08:06.828Z,6.5
2019-01-16T15:13:06.828Z,6.5
2019-01-16T15:18:06.970Z,6.4
2019-01-16T15:23:06.960Z,6.3
2019-01-16T15:28:06.832Z,6.2
2019-01-16T15:33:06.962Z,6.1
2019-01-16T15:38:06.850Z,6
2019-01-16T15:43:06.956Z,5.8
2019-01-16T15:48:07.094Z,5.7
2019-01-16T15:53:07.011Z,5.5
2019-01-16T15:58:07.045Z,5.4
2019-01-16T16:03:06.880Z,5.3
2019-01-16T16:08:06.861Z,5.1
2019-01-16T16:13:06.999Z,4.9
2019-01-16T16:18:06.876Z,4.7
2019-01-16T16:23:07.128Z,4.6
2019-01-16T16:28:07.043Z,4.5
2019-01-16T16:33:06.994Z,4.2
2019-01-16T16:38:07.006Z,4.1
2019-01-16T16:43:06.872Z,4
2019-01-16T16:48:06.900Z,3.9
2019-01-16T16:53:06.904Z,3.8
2019-01-16T16:58:06.908Z,3.7
2019-01-16T17:03:06.907Z,3.7
2019-01-16T17:08:06.901Z,3.6
2019-01-16T17:13:06.873Z,3.5
2019-01-16T17:18:06.894Z,3.4
2019-01-16T17:23:06.896Z,3.2
2019-01-16T17:28:07.650Z,3.2
2019-01-16T17:33:06.901Z,3.1
2019-01-16T21:48:38.532Z,1.4
2019-01-16T21:53:38.453Z,1.3
2019-01-16T21:58:38.495Z,1.3
2019-01-16T22:03:38.541Z,1.2
2019-01-16T22:08:38.363Z,1.2
2019-01-16T22:13:38.362Z,1.1
2019-01-16T22:18:38.320Z,1.1
2019-01-16T22:23:38.566Z,1
2019-01-16T22:28:39.541Z,1
2019-01-16T22:33:38.359Z,0.9
2019-01-16T22:38:38.372Z,0.8
2019-01-16T22:43:38.312Z,0.8
2019-01-16T22:48:38.471Z,0.7
2019-01-16T22:53:43.262Z,0.7
2019-01-16T22:58:38.492Z,0.6
2019-01-16T23:03:38.380Z,0.6
2019-01-16T23:08:38.373Z,0.5
2019-01-16T23:13:38.517Z,0.4
2019-01-16T23:18:38.397Z,0.4
2019-01-16T23:23:38.548Z,0.2
2019-01-16T23:28:38.415Z,0.2
2019-01-16T23:33:38.525Z,0.2
2019-01-16T23:38:38.592Z,0.1
2019-01-16T23:43:38.614Z,0.1
2019-01-16T23:48:38.407Z,0
2019-01-16T23:53:38.571Z,0
2019-01-16T23:58:38.402Z,0
